sensor_id;sensor_type;location;lat;lon;timestamp;pressure;altitude;pressure_sealevel;temperature;humidity
26043;BME280;13818;52.156;5.382;2023-04-28T00:01:41;101124.56;;;9.50;93.11
26043;BME280;13818;52.156;5.382;2023-04-28T00:04:07;101118.78;;;9.39;94.39
26043;BME280;13818;52.156;5.382;2023-04-28T00:06:34;101128.16;;;9.49;93.02
26043;BME280;13818;52.156;5.382;2023-04-28T00:09:01;101124.69;;;9.47;92.93
26043;BME280;13818;52.156;5.382;2023-04-28T00:11:31;101103.97;;;9.55;93.09
26043;BME280;13818;52.156;5.382;2023-04-28T00:14:00;101105.66;;;9.58;92.48
26043;BME280;13818;52.156;5.382;2023-04-28T00:16:40;101108.28;;;9.59;92.49
26043;BME280;13818;52.156;5.382;2023-04-28T00:19:07;101096.13;;;9.52;92.34
26043;BME280;13818;52.156;5.382;2023-04-28T00:21:37;101091.84;;;9.48;91.80
26043;BME280;13818;52.156;5.382;2023-04-28T00:24:16;101076.81;;;9.47;93.19
26043;BME280;13818;52.156;5.382;2023-04-28T00:26:46;101074.25;;;9.44;94.34
26043;BME280;13818;52.156;5.382;2023-04-28T00:29:18;101078.56;;;9.47;93.90
26043;BME280;13818;52.156;5.382;2023-04-28T00:31:49;101081.38;;;9.43;94.23
26043;BME280;13818;52.156;5.382;2023-04-28T00:34:19;101070.88;;;9.39;94.34
26043;BME280;13818;52.156;5.382;2023-04-28T00:36:54;101063.81;;;9.38;94.83
26043;BME280;13818;52.156;5.382;2023-04-28T00:39:21;101054.38;;;9.31;95.62
26043;BME280;13818;52.156;5.382;2023-04-28T00:41:50;101050.50;;;9.39;96.05
26043;BME280;13818;52.156;5.382;2023-04-28T00:44:20;101052.41;;;9.36;95.84
26043;BME280;13818;52.156;5.382;2023-04-28T00:46:48;101052.91;;;9.46;93.52
26043;BME280;13818;52.156;5.382;2023-04-28T00:49:20;101054.63;;;9.47;93.63
26043;BME280;13818;52.156;5.382;2023-04-28T00:51:51;101053.88;;;9.43;93.89
26043;BME280;13818;52.156;5.382;2023-04-28T00:54:20;101050.28;;;9.44;94.99
26043;BME280;13818;52.156;5.382;2023-04-28T00:56:47;101053.78;;;9.46;95.66
26043;BME280;13818;52.156;5.382;2023-04-28T00:59:19;101053.19;;;9.38;96.96
26043;BME280;13818;52.156;5.382;2023-04-28T01:01:54;101038.88;;;9.42;96.40
26043;BME280;13818;52.156;5.382;2023-04-28T01:04:26;101026.31;;;9.46;96.38
26043;BME280;13818;52.156;5.382;2023-04-28T01:06:54;101034.16;;;9.49;96.34
26043;BME280;13818;52.156;5.382;2023-04-28T01:09:30;101028.78;;;9.50;95.91
26043;BME280;13818;52.156;5.382;2023-04-28T01:12:04;101031.63;;;9.46;96.96
26043;BME280;13818;52.156;5.382;2023-04-28T01:14:33;101024.06;;;9.35;97.94
26043;BME280;13818;52.156;5.382;2023-04-28T01:17:01;101035.38;;;9.40;100.00
26043;BME280;13818;52.156;5.382;2023-04-28T01:19:33;101031.88;;;9.39;99.73
26043;BME280;13818;52.156;5.382;2023-04-28T01:22:04;101029.53;;;9.30;100.00
26043;BME280;13818;52.156;5.382;2023-04-28T01:24:51;101025.44;;;9.21;100.00
26043;BME280;13818;52.156;5.382;2023-04-28T01:27:22;101018.63;;;9.14;100.00
26043;BME280;13818;52.156;5.382;2023-04-28T01:29:50;101021.09;;;9.19;100.00
26043;BME280;13818;52.156;5.382;2023-04-28T01:32:20;101021.78;;;9.24;100.00
26043;BME280;13818;52.156;5.382;2023-04-28T01:34:50;101012.19;;;9.20;100.00
26043;BME280;13818;52.156;5.382;2023-04-28T01:37:23;101008.91;;;9.13;100.00
26043;BME280;13818;52.156;5.382;2023-04-28T01:39:55;101004.72;;;9.06;100.00
26043;BME280;13818;52.156;5.382;2023-04-28T01:42:25;101002.69;;;9.12;100.00
26043;BME280;13818;52.156;5.382;2023-04-28T01:44:56;100989.38;;;9.14;100.00
26043;BME280;13818;52.156;5.382;2023-04-28T01:47:26;100989.19;;;9.19;100.00
26043;BME280;13818;52.156;5.382;2023-04-28T01:49:57;100986.59;;;9.17;100.00
26043;BME280;13818;52.156;5.382;2023-04-28T01:52:36;100983.06;;;9.17;100.00
26043;BME280;13818;52.156;5.382;2023-04-28T01:55:11;100984.50;;;9.25;100.00
26043;BME280;13818;52.156;5.382;2023-04-28T01:57:50;100980.56;;;9.12;100.00
26043;BME280;13818;52.156;5.382;2023-04-28T02:00:21;100977.31;;;9.04;100.00
26043;BME280;13818;52.156;5.382;2023-04-28T02:02:51;100980.50;;;8.90;100.00
26043;BME280;13818;52.156;5.382;2023-04-28T02:05:21;100979.41;;;8.95;100.00
26043;BME280;13818;52.156;5.382;2023-04-28T02:07:56;100977.47;;;9.01;100.00
26043;BME280;13818;52.156;5.382;2023-04-28T02:10:32;100970.56;;;8.95;100.00
26043;BME280;13818;52.156;5.382;2023-04-28T02:13:10;100970.34;;;9.01;100.00
26043;BME280;13818;52.156;5.382;2023-04-28T02:15:44;100974.72;;;9.02;100.00
26043;BME280;13818;52.156;5.382;2023-04-28T02:18:17;100972.97;;;9.03;100.00
26043;BME280;13818;52.156;5.382;2023-04-28T02:20:46;100969.34;;;9.04;100.00
26043;BME280;13818;52.156;5.382;2023-04-28T02:23:22;100962.78;;;8.90;100.00
26043;BME280;13818;52.156;5.382;2023-04-28T02:25:59;100953.81;;;8.93;100.00
26043;BME280;13818;52.156;5.382;2023-04-28T02:28:26;100957.41;;;8.92;100.00
26043;BME280;13818;52.156;5.382;2023-04-28T02:31:02;100942.31;;;8.92;100.00
26043;BME280;13818;52.156;5.382;2023-04-28T02:33:31;100942.31;;;8.92;100.00
26043;BME280;13818;52.156;5.382;2023-04-28T02:36:01;100938.03;;;8.88;100.00
26043;BME280;13818;52.156;5.382;2023-04-28T02:38:39;100933.41;;;8.93;100.00
26043;BME280;13818;52.156;5.382;2023-04-28T02:41:10;100941.81;;;8.83;100.00
26043;BME280;13818;52.156;5.382;2023-04-28T02:43:46;100933.94;;;8.79;100.00
26043;BME280;13818;52.156;5.382;2023-04-28T02:46:21;100933.06;;;8.79;100.00
26043;BME280;13818;52.156;5.382;2023-04-28T02:49:03;100927.63;;;8.82;100.00
26043;BME280;13818;52.156;5.382;2023-04-28T02:51:33;100922.25;;;8.84;100.00
26043;BME280;13818;52.156;5.382;2023-04-28T02:54:02;100915.63;;;8.72;100.00
26043;BME280;13818;52.156;5.382;2023-04-28T02:56:37;100917.00;;;8.82;100.00
26043;BME280;13818;52.156;5.382;2023-04-28T02:59:05;100906.44;;;8.81;100.00
26043;BME280;13818;52.156;5.382;2023-04-28T03:01:31;100898.69;;;8.74;100.00
26043;BME280;13818;52.156;5.382;2023-04-28T03:03:58;100897.59;;;8.80;100.00
26043;BME280;13818;52.156;5.382;2023-04-28T03:06:24;100899.53;;;8.75;100.00
26043;BME280;13818;52.156;5.382;2023-04-28T03:08:52;100897.94;;;8.71;100.00
26043;BME280;13818;52.156;5.382;2023-04-28T03:11:18;100889.19;;;8.67;100.00
26043;BME280;13818;52.156;5.382;2023-04-28T03:13:47;100891.56;;;8.75;100.00
26043;BME280;13818;52.156;5.382;2023-04-28T03:16:13;100883.03;;;8.67;100.00
26043;BME280;13818;52.156;5.382;2023-04-28T03:18:40;100880.53;;;8.62;100.00
26043;BME280;13818;52.156;5.382;2023-04-28T03:21:06;100878.56;;;8.67;100.00
26043;BME280;13818;52.156;5.382;2023-04-28T03:23:33;100877.81;;;8.63;100.00
26043;BME280;13818;52.156;5.382;2023-04-28T03:25:59;100882.00;;;8.71;100.00
26043;BME280;13818;52.156;5.382;2023-04-28T03:28:26;100870.03;;;8.59;100.00
26043;BME280;13818;52.156;5.382;2023-04-28T03:30:54;100875.00;;;8.68;100.00
26043;BME280;13818;52.156;5.382;2023-04-28T03:33:21;100872.28;;;8.70;100.00
26043;BME280;13818;52.156;5.382;2023-04-28T03:35:48;100864.66;;;8.60;100.00
26043;BME280;13818;52.156;5.382;2023-04-28T03:38:14;100854.63;;;8.69;100.00
26043;BME280;13818;52.156;5.382;2023-04-28T03:40:41;100850.53;;;8.60;100.00
26043;BME280;13818;52.156;5.382;2023-04-28T03:43:07;100843.41;;;8.60;100.00
26043;BME280;13818;52.156;5.382;2023-04-28T03:45:34;100845.91;;;8.65;100.00
26043;BME280;13818;52.156;5.382;2023-04-28T03:48:02;100838.84;;;8.64;100.00
26043;BME280;13818;52.156;5.382;2023-04-28T03:50:28;100835.75;;;8.75;100.00
26043;BME280;13818;52.156;5.382;2023-04-28T03:52:55;100833.09;;;8.75;100.00
26043;BME280;13818;52.156;5.382;2023-04-28T03:55:21;100837.72;;;8.70;100.00
26043;BME280;13818;52.156;5.382;2023-04-28T03:57:48;100834.97;;;8.73;100.00
26043;BME280;13818;52.156;5.382;2023-04-28T04:00:14;100837.50;;;8.76;100.00
26043;BME280;13818;52.156;5.382;2023-04-28T04:02:41;100836.56;;;8.77;100.00
26043;BME280;13818;52.156;5.382;2023-04-28T04:05:16;100835.03;;;8.71;100.00
26043;BME280;13818;52.156;5.382;2023-04-28T04:07:51;100828.91;;;8.69;100.00
26043;BME280;13818;52.156;5.382;2023-04-28T04:10:17;100823.41;;;8.74;100.00
26043;BME280;13818;52.156;5.382;2023-04-28T04:12:44;100811.06;;;8.73;100.00
26043;BME280;13818;52.156;5.382;2023-04-28T04:15:10;100818.03;;;8.75;100.00
26043;BME280;13818;52.156;5.382;2023-04-28T04:17:37;100803.19;;;8.70;100.00
26043;BME280;13818;52.156;5.382;2023-04-28T04:20:05;100803.31;;;8.67;100.00
26043;BME280;13818;52.156;5.382;2023-04-28T04:22:33;100796.19;;;8.67;100.00
26043;BME280;13818;52.156;5.382;2023-04-28T04:25:00;100806.78;;;8.69;100.00
26043;BME280;13818;52.156;5.382;2023-04-28T04:27:26;100813.81;;;8.70;100.00
26043;BME280;13818;52.156;5.382;2023-04-28T04:29:53;100803.41;;;8.63;100.00
26043;BME280;13818;52.156;5.382;2023-04-28T04:32:19;100802.47;;;8.66;100.00
26043;BME280;13818;52.156;5.382;2023-04-28T04:34:46;100804.31;;;8.64;100.00
26043;BME280;13818;52.156;5.382;2023-04-28T04:37:12;100803.56;;;8.60;100.00
26043;BME280;13818;52.156;5.382;2023-04-28T04:39:40;100792.78;;;8.63;100.00
26043;BME280;13818;52.156;5.382;2023-04-28T04:42:07;100782.97;;;8.66;100.00
26043;BME280;13818;52.156;5.382;2023-04-28T04:44:34;100783.66;;;8.71;100.00
26043;BME280;13818;52.156;5.382;2023-04-28T04:47:00;100788.81;;;8.75;100.00
26043;BME280;13818;52.156;5.382;2023-04-28T04:49:27;100770.28;;;8.74;100.00
26043;BME280;13818;52.156;5.382;2023-04-28T04:51:54;100778.34;;;8.71;100.00
26043;BME280;13818;52.156;5.382;2023-04-28T04:54:22;100774.91;;;8.69;100.00
26043;BME280;13818;52.156;5.382;2023-04-28T04:56:50;100768.84;;;8.65;100.00
26043;BME280;13818;52.156;5.382;2023-04-28T04:59:16;100781.22;;;8.66;100.00
26043;BME280;13818;52.156;5.382;2023-04-28T05:01:43;100767.72;;;8.71;100.00
26043;BME280;13818;52.156;5.382;2023-04-28T05:04:09;100769.28;;;8.76;100.00
26043;BME280;13818;52.156;5.382;2023-04-28T05:06:36;100776.03;;;8.85;100.00
26043;BME280;13818;52.156;5.382;2023-04-28T05:09:03;100768.09;;;8.84;100.00
26043;BME280;13818;52.156;5.382;2023-04-28T05:11:29;100771.19;;;8.95;100.00
26043;BME280;13818;52.156;5.382;2023-04-28T05:13:57;100772.38;;;8.88;100.00
26043;BME280;13818;52.156;5.382;2023-04-28T05:16:24;100775.56;;;8.96;100.00
26043;BME280;13818;52.156;5.382;2023-04-28T05:18:50;100777.88;;;8.83;100.00
26043;BME280;13818;52.156;5.382;2023-04-28T05:21:17;100774.25;;;8.62;100.00
26043;BME280;13818;52.156;5.382;2023-04-28T05:23:43;100774.25;;;8.62;100.00
26043;BME280;13818;52.156;5.382;2023-04-28T05:26:10;100772.56;;;8.83;100.00
26043;BME280;13818;52.156;5.382;2023-04-28T05:28:38;100776.13;;;8.82;100.00
26043;BME280;13818;52.156;5.382;2023-04-28T05:31:06;100772.91;;;8.96;100.00
26043;BME280;13818;52.156;5.382;2023-04-28T05:33:32;100772.25;;;8.91;100.00
26043;BME280;13818;52.156;5.382;2023-04-28T05:35:59;100778.59;;;9.09;100.00
26043;BME280;13818;52.156;5.382;2023-04-28T05:38:25;100782.94;;;9.11;100.00
26043;BME280;13818;52.156;5.382;2023-04-28T05:40:53;100782.75;;;9.16;100.00
26043;BME280;13818;52.156;5.382;2023-04-28T05:43:24;100791.63;;;9.15;100.00
26043;BME280;13818;52.156;5.382;2023-04-28T05:45:55;100787.63;;;9.05;100.00
26043;BME280;13818;52.156;5.382;2023-04-28T05:48:26;100792.16;;;9.03;100.00
26043;BME280;13818;52.156;5.382;2023-04-28T05:50:56;100772.13;;;8.94;100.00
26043;BME280;13818;52.156;5.382;2023-04-28T05:53:23;100782.63;;;8.97;100.00
26043;BME280;13818;52.156;5.382;2023-04-28T05:55:55;100783.13;;;8.85;100.00
26043;BME280;13818;52.156;5.382;2023-04-28T05:58:21;100773.84;;;8.73;100.00
26043;BME280;13818;52.156;5.382;2023-04-28T06:00:54;100781.81;;;8.73;100.00
26043;BME280;13818;52.156;5.382;2023-04-28T06:03:26;100788.75;;;8.77;100.00
26043;BME280;13818;52.156;5.382;2023-04-28T06:06:00;100778.94;;;8.79;100.00
26043;BME280;13818;52.156;5.382;2023-04-28T06:08:29;100784.34;;;8.76;100.00
26043;BME280;13818;52.156;5.382;2023-04-28T06:11:05;100767.94;;;8.66;100.00
26043;BME280;13818;52.156;5.382;2023-04-28T06:13:36;100763.63;;;8.62;100.00
26043;BME280;13818;52.156;5.382;2023-04-28T06:16:07;100761.19;;;8.57;100.00
26043;BME280;13818;52.156;5.382;2023-04-28T06:18:42;100747.75;;;8.60;100.00
26043;BME280;13818;52.156;5.382;2023-04-28T06:21:10;100746.91;;;8.60;100.00
26043;BME280;13818;52.156;5.382;2023-04-28T06:23:41;100745.09;;;8.60;100.00
26043;BME280;13818;52.156;5.382;2023-04-28T06:26:17;100737.63;;;8.70;100.00
26043;BME280;13818;52.156;5.382;2023-04-28T06:28:46;100745.06;;;8.84;100.00
26043;BME280;13818;52.156;5.382;2023-04-28T06:31:20;100742.91;;;8.94;100.00
26043;BME280;13818;52.156;5.382;2023-04-28T06:33:47;100740.91;;;8.99;100.00
26043;BME280;13818;52.156;5.382;2023-04-28T06:36:29;100743.91;;;9.12;100.00
26043;BME280;13818;52.156;5.382;2023-04-28T06:39:05;100751.31;;;9.26;100.00
26043;BME280;13818;52.156;5.382;2023-04-28T06:41:36;100746.47;;;9.36;100.00
26043;BME280;13818;52.156;5.382;2023-04-28T06:44:11;100747.63;;;9.51;100.00
26043;BME280;13818;52.156;5.382;2023-04-28T06:46:44;100748.69;;;9.67;100.00
26043;BME280;13818;52.156;5.382;2023-04-28T06:49:16;100742.66;;;9.83;100.00
26043;BME280;13818;52.156;5.382;2023-04-28T06:51:47;100745.13;;;10.46;100.00
26043;BME280;13818;52.156;5.382;2023-04-28T06:54:23;100742.97;;;10.54;100.00
26043;BME280;13818;52.156;5.382;2023-04-28T06:56:59;100738.78;;;10.49;100.00
26043;BME280;13818;52.156;5.382;2023-04-28T06:59:35;100733.19;;;10.36;100.00
26043;BME280;13818;52.156;5.382;2023-04-28T07:02:13;100733.66;;;10.25;100.00
26043;BME280;13818;52.156;5.382;2023-04-28T07:04:50;100725.13;;;10.37;100.00
26043;BME280;13818;52.156;5.382;2023-04-28T07:07:19;100723.00;;;10.25;100.00
26043;BME280;13818;52.156;5.382;2023-04-28T07:09:51;100730.44;;;10.37;100.00
26043;BME280;13818;52.156;5.382;2023-04-28T07:12:30;100744.50;;;10.41;100.00
26043;BME280;13818;52.156;5.382;2023-04-28T07:15:03;100751.34;;;10.47;100.00
26043;BME280;13818;52.156;5.382;2023-04-28T07:17:47;100742.91;;;10.37;100.00
26043;BME280;13818;52.156;5.382;2023-04-28T07:20:17;100735.91;;;10.34;100.00
26043;BME280;13818;52.156;5.382;2023-04-28T07:22:48;100743.34;;;10.47;100.00
26043;BME280;13818;52.156;5.382;2023-04-28T07:25:22;100744.41;;;10.62;100.00
26043;BME280;13818;52.156;5.382;2023-04-28T07:27:50;100739.00;;;10.63;100.00
26043;BME280;13818;52.156;5.382;2023-04-28T07:30:22;100741.13;;;10.74;100.00
26043;BME280;13818;52.156;5.382;2023-04-28T07:32:55;100743.47;;;10.82;100.00
26043;BME280;13818;52.156;5.382;2023-04-28T07:35:29;100743.13;;;10.88;100.00
26043;BME280;13818;52.156;5.382;2023-04-28T07:37:57;100742.69;;;10.97;100.00
26043;BME280;13818;52.156;5.382;2023-04-28T07:40:33;100745.78;;;11.07;100.00
26043;BME280;13818;52.156;5.382;2023-04-28T07:43:05;100739.97;;;11.16;100.00
26043;BME280;13818;52.156;5.382;2023-04-28T07:45:33;100746.25;;;11.33;100.00
26043;BME280;13818;52.156;5.382;2023-04-28T07:48:09;100739.41;;;11.45;100.00
26043;BME280;13818;52.156;5.382;2023-04-28T07:50:47;100732.38;;;11.61;100.00
26043;BME280;13818;52.156;5.382;2023-04-28T07:53:25;100725.91;;;11.65;100.00
26043;BME280;13818;52.156;5.382;2023-04-28T07:55:58;100733.44;;;11.75;100.00
26043;BME280;13818;52.156;5.382;2023-04-28T07:58:30;100718.63;;;12.02;100.00
26043;BME280;13818;52.156;5.382;2023-04-28T08:00:59;100722.69;;;12.10;100.00
26043;BME280;13818;52.156;5.382;2023-04-28T08:03:34;100734.31;;;12.09;100.00
26043;BME280;13818;52.156;5.382;2023-04-28T08:06:05;100730.81;;;11.91;100.00
26043;BME280;13818;52.156;5.382;2023-04-28T08:08:37;100725.19;;;12.13;100.00
26043;BME280;13818;52.156;5.382;2023-04-28T08:11:04;100723.06;;;12.19;100.00
26043;BME280;13818;52.156;5.382;2023-04-28T08:13:32;100722.00;;;12.06;100.00
26043;BME280;13818;52.156;5.382;2023-04-28T08:16:00;100731.47;;;11.96;100.00
26043;BME280;13818;52.156;5.382;2023-04-28T08:18:30;100726.34;;;12.25;100.00
26043;BME280;13818;52.156;5.382;2023-04-28T08:20:59;100732.81;;;12.20;100.00
26043;BME280;13818;52.156;5.382;2023-04-28T08:23:35;100728.84;;;12.28;100.00
26043;BME280;13818;52.156;5.382;2023-04-28T08:26:28;100732.97;;;12.17;100.00
26043;BME280;13818;52.156;5.382;2023-04-28T08:29:00;100732.06;;;12.01;100.00
26043;BME280;13818;52.156;5.382;2023-04-28T08:31:31;100738.13;;;12.04;100.00
26043;BME280;13818;52.156;5.382;2023-04-28T08:34:09;100741.81;;;12.02;100.00
26043;BME280;13818;52.156;5.382;2023-04-28T08:36:38;100733.22;;;12.13;100.00
26043;BME280;13818;52.156;5.382;2023-04-28T08:39:42;100739.09;;;12.19;100.00
26043;BME280;13818;52.156;5.382;2023-04-28T08:42:17;100739.84;;;12.06;100.00
26043;BME280;13818;52.156;5.382;2023-04-28T08:44:57;100733.16;;;12.14;100.00
26043;BME280;13818;52.156;5.382;2023-04-28T08:47:37;100737.41;;;12.34;100.00
26043;BME280;13818;52.156;5.382;2023-04-28T08:50:19;100739.47;;;12.45;100.00
26043;BME280;13818;52.156;5.382;2023-04-28T08:52:51;100741.19;;;12.46;100.00
26043;BME280;13818;52.156;5.382;2023-04-28T08:55:22;100734.91;;;12.63;100.00
26043;BME280;13818;52.156;5.382;2023-04-28T08:58:05;100738.34;;;12.65;100.00
26043;BME280;13818;52.156;5.382;2023-04-28T09:00:35;100736.44;;;12.51;100.00
26043;BME280;13818;52.156;5.382;2023-04-28T09:03:09;100738.69;;;12.43;100.00
26043;BME280;13818;52.156;5.382;2023-04-28T09:05:45;100737.47;;;12.49;100.00
26043;BME280;13818;52.156;5.382;2023-04-28T09:08:18;100731.53;;;12.44;100.00
26043;BME280;13818;52.156;5.382;2023-04-28T09:11:12;100732.47;;;12.43;100.00
26043;BME280;13818;52.156;5.382;2023-04-28T09:13:58;100726.78;;;12.33;100.00
26043;BME280;13818;52.156;5.382;2023-04-28T09:16:43;100709.72;;;12.51;100.00
26043;BME280;13818;52.156;5.382;2023-04-28T09:19:17;100721.09;;;12.55;100.00
26043;BME280;13818;52.156;5.382;2023-04-28T09:21:46;100717.03;;;12.64;100.00
26043;BME280;13818;52.156;5.382;2023-04-28T09:24:42;100720.66;;;12.63;100.00
26043;BME280;13818;52.156;5.382;2023-04-28T09:27:16;100714.19;;;12.67;100.00
26043;BME280;13818;52.156;5.382;2023-04-28T09:30:06;100723.69;;;12.57;100.00
26043;BME280;13818;52.156;5.382;2023-04-28T09:32:37;100728.09;;;12.58;100.00
26043;BME280;13818;52.156;5.382;2023-04-28T09:35:09;100718.22;;;12.58;100.00
26043;BME280;13818;52.156;5.382;2023-04-28T09:37:37;100726.19;;;12.60;100.00
26043;BME280;13818;52.156;5.382;2023-04-28T09:40:12;100726.78;;;12.65;100.00
26043;BME280;13818;52.156;5.382;2023-04-28T09:42:42;100719.63;;;12.65;100.00
26043;BME280;13818;52.156;5.382;2023-04-28T09:45:15;100725.22;;;12.77;100.00
26043;BME280;13818;52.156;5.382;2023-04-28T09:47:46;100720.63;;;12.95;100.00
26043;BME280;13818;52.156;5.382;2023-04-28T09:50:17;100719.50;;;12.99;100.00
26043;BME280;13818;52.156;5.382;2023-04-28T09:52:55;100711.13;;;13.05;100.00
26043;BME280;13818;52.156;5.382;2023-04-28T09:55:24;100706.94;;;13.15;100.00
26043;BME280;13818;52.156;5.382;2023-04-28T09:57:54;100711.25;;;13.18;100.00
26043;BME280;13818;52.156;5.382;2023-04-28T10:00:28;100712.56;;;13.11;100.00
26043;BME280;13818;52.156;5.382;2023-04-28T10:03:00;100713.56;;;13.24;100.00
26043;BME280;13818;52.156;5.382;2023-04-28T10:05:35;100718.47;;;13.32;100.00
26043;BME280;13818;52.156;5.382;2023-04-28T10:08:14;100717.75;;;13.44;100.00
26043;BME280;13818;52.156;5.382;2023-04-28T10:11:11;100717.09;;;13.41;100.00
26043;BME280;13818;52.156;5.382;2023-04-28T10:13:52;100722.19;;;13.60;100.00
26043;BME280;13818;52.156;5.382;2023-04-28T10:16:39;100718.50;;;13.46;100.00
26043;BME280;13818;52.156;5.382;2023-04-28T10:19:08;100710.31;;;13.49;100.00
26043;BME280;13818;52.156;5.382;2023-04-28T10:21:44;100720.81;;;13.53;100.00
26043;BME280;13818;52.156;5.382;2023-04-28T10:24:21;100721.22;;;13.61;100.00
26043;BME280;13818;52.156;5.382;2023-04-28T10:27:06;100713.09;;;13.62;100.00
26043;BME280;13818;52.156;5.382;2023-04-28T10:29:34;100723.06;;;13.75;100.00
26043;BME280;13818;52.156;5.382;2023-04-28T10:32:27;100718.72;;;13.58;100.00
26043;BME280;13818;52.156;5.382;2023-04-28T10:38:17;100714.28;;;13.87;100.00
26043;BME280;13818;52.156;5.382;2023-04-28T10:40:51;100723.56;;;13.96;100.00
26043;BME280;13818;52.156;5.382;2023-04-28T10:43:37;100717.81;;;13.88;100.00
26043;BME280;13818;52.156;5.382;2023-04-28T10:46:13;100724.03;;;14.03;100.00
26043;BME280;13818;52.156;5.382;2023-04-28T10:48:59;100721.94;;;13.93;100.00
26043;BME280;13818;52.156;5.382;2023-04-28T10:51:41;100726.72;;;13.88;100.00
26043;BME280;13818;52.156;5.382;2023-04-28T10:54:23;100718.38;;;14.22;100.00
26043;BME280;13818;52.156;5.382;2023-04-28T11:00:28;100726.41;;;14.36;100.00
26043;BME280;13818;52.156;5.382;2023-04-28T11:02:59;100716.03;;;14.44;100.00
26043;BME280;13818;52.156;5.382;2023-04-28T11:05:31;100716.97;;;14.43;100.00
26043;BME280;13818;52.156;5.382;2023-04-28T11:08:31;100718.59;;;14.46;100.00
26043;BME280;13818;52.156;5.382;2023-04-28T11:11:23;100718.22;;;14.67;100.00
26043;BME280;13818;52.156;5.382;2023-04-28T11:14:31;100724.81;;;14.75;100.00
26043;BME280;13818;52.156;5.382;2023-04-28T11:17:02;100719.38;;;14.90;100.00
26043;BME280;13818;52.156;5.382;2023-04-28T11:19:39;100714.41;;;14.84;100.00
26043;BME280;13818;52.156;5.382;2023-04-28T11:22:15;100707.63;;;15.05;100.00
26043;BME280;13818;52.156;5.382;2023-04-28T11:25:21;100708.22;;;15.23;100.00
26043;BME280;13818;52.156;5.382;2023-04-28T11:27:54;100715.38;;;15.10;100.00
26043;BME280;13818;52.156;5.382;2023-04-28T11:30:35;100701.47;;;15.31;100.00
26043;BME280;13818;52.156;5.382;2023-04-28T11:33:09;100705.66;;;15.60;100.00
26043;BME280;13818;52.156;5.382;2023-04-28T11:35:42;100708.13;;;15.51;100.00
26043;BME280;13818;52.156;5.382;2023-04-28T11:38:11;100704.59;;;15.63;100.00
26043;BME280;13818;52.156;5.382;2023-04-28T11:40:59;100708.81;;;15.67;100.00
26043;BME280;13818;52.156;5.382;2023-04-28T11:43:30;100709.97;;;15.63;100.00
26043;BME280;13818;52.156;5.382;2023-04-28T11:46:09;100702.97;;;15.60;100.00
26043;BME280;13818;52.156;5.382;2023-04-28T11:48:39;100700.75;;;15.67;100.00
26043;BME280;13818;52.156;5.382;2023-04-28T11:51:30;100705.00;;;15.57;100.00
26043;BME280;13818;52.156;5.382;2023-04-28T11:54:09;100705.25;;;15.54;100.00
26043;BME280;13818;52.156;5.382;2023-04-28T11:56:47;100712.13;;;15.58;100.00
26043;BME280;13818;52.156;5.382;2023-04-28T11:59:25;100712.34;;;15.68;100.00
26043;BME280;13818;52.156;5.382;2023-04-28T12:02:06;100709.47;;;15.84;100.00
26043;BME280;13818;52.156;5.382;2023-04-28T12:04:38;100708.91;;;15.78;100.00
26043;BME280;13818;52.156;5.382;2023-04-28T12:07:15;100715.97;;;15.79;100.00
26043;BME280;13818;52.156;5.382;2023-04-28T12:09:48;100715.59;;;15.86;100.00
26043;BME280;13818;52.156;5.382;2023-04-28T12:12:51;100710.31;;;15.84;100.00
26043;BME280;13818;52.156;5.382;2023-04-28T12:15:38;100713.94;;;15.70;100.00
26043;BME280;13818;52.156;5.382;2023-04-28T12:18:21;100717.47;;;15.71;100.00
26043;BME280;13818;52.156;5.382;2023-04-28T12:20:56;100720.28;;;15.69;100.00
26043;BME280;13818;52.156;5.382;2023-04-28T12:23:39;100723.94;;;15.68;100.00
26043;BME280;13818;52.156;5.382;2023-04-28T12:26:23;100720.50;;;15.66;100.00
26043;BME280;13818;52.156;5.382;2023-04-28T12:28:58;100732.78;;;15.83;100.00
26043;BME280;13818;52.156;5.382;2023-04-28T12:31:30;100721.97;;;15.85;100.00
26043;BME280;13818;52.156;5.382;2023-04-28T12:34:00;100728.06;;;15.87;100.00
26043;BME280;13818;52.156;5.382;2023-04-28T12:36:36;100722.13;;;15.69;100.00
26043;BME280;13818;52.156;5.382;2023-04-28T12:39:14;100732.66;;;15.72;100.00
26043;BME280;13818;52.156;5.382;2023-04-28T12:42:01;100727.38;;;15.70;100.00
26043;BME280;13818;52.156;5.382;2023-04-28T12:44:36;100723.84;;;15.70;100.00
26043;BME280;13818;52.156;5.382;2023-04-28T12:47:09;100731.16;;;15.68;100.00
26043;BME280;13818;52.156;5.382;2023-04-28T12:49:42;100728.22;;;15.71;100.00
26043;BME280;13818;52.156;5.382;2023-04-28T12:52:16;100722.31;;;15.66;100.00
26043;BME280;13818;52.156;5.382;2023-04-28T12:54:47;100717.72;;;15.42;100.00
26043;BME280;13818;52.156;5.382;2023-04-28T12:57:19;100722.97;;;15.56;100.00
26043;BME280;13818;52.156;5.382;2023-04-28T12:59:52;100728.69;;;15.65;100.00
26043;BME280;13818;52.156;5.382;2023-04-28T13:02:31;100729.63;;;15.51;100.00
26043;BME280;13818;52.156;5.382;2023-04-28T13:05:04;100732.41;;;15.62;100.00
26043;BME280;13818;52.156;5.382;2023-04-28T13:07:32;100729.22;;;15.70;100.00
26043;BME280;13818;52.156;5.382;2023-04-28T13:10:04;100731.78;;;15.71;100.00
26043;BME280;13818;52.156;5.382;2023-04-28T13:12:34;100723.31;;;15.65;100.00
26043;BME280;13818;52.156;5.382;2023-04-28T13:15:07;100736.94;;;15.74;100.00
26043;BME280;13818;52.156;5.382;2023-04-28T13:17:35;100731.50;;;15.89;100.00
26043;BME280;13818;52.156;5.382;2023-04-28T13:20:08;100726.97;;;16.02;100.00
26043;BME280;13818;52.156;5.382;2023-04-28T13:22:40;100729.88;;;16.12;100.00